-0.8F
Current conditions from King Hill
Updated every 5 minutes
 
  Sunday January 20, 2019

Observations for Westford

Westford

44° 37' 38"N, 73° 02' 29"W, Elevation 850 ft.
Eastern Time

Hourly observations for the last 72 hours

Date Time Temperature (°F) Humi-
dity

(%)
Wind
(mph)
Pressure Rain (in)
Air Dew 6 Hour 1 Hr 3 Hr 6 Hr Day
Alt
(in)
Sea
Level

(mb)
Max Min
20 14:00 -1.5 -4.9 85 NW 4 G 19 29.56 1001.2 0.00
20 13:00 -0.8 -4.2 8.8 -0.8 85 NW 5 G 14 29.55 1000.7 0.00
20 12:00 2.2 -1.0 86 NW 0 G 4 29.54 1000.4 0.00
20 11:00 4.1 0.8 86 NW 0 G 2 29.60 1002.3 0.00
20 10:00 7.4 4.6 88 Calm 29.62 1003.0 0.00
20 09:00 8.0 5.2 88 Calm 29.67 1004.9 0.00
20 08:00 6.0 3.5 89 Calm 29.72 1006.4 0.00
20 07:00 2.9 -0.1 2.9 -6.8 87 Calm 29.75 1007.7 0.00
20 06:00 1.5 -1.5 87 Calm 29.81 1009.4 0.00
20 05:00 -2.7 -5.8 86 Calm 29.87 1011.5 0.00
20 04:00 -5.9 -9.5 84 Calm 29.94 1013.9 0.00
20 03:00 -5.9 -9.7 83 Calm 29.96 1014.7 0.00
20 02:00 -6.2 -9.8 84 Calm 29.99 1015.4 0.00
20 01:00 -6.8 -10.4 -6.5 -8.2 84 Calm 30.06 1018.0 0.00
20 00:00 -6.6 -10.4 83 Calm 30.12 1020.1 0.00
19 23:00 -7.9 -11.7 83 Calm 30.16 1021.3 0.00
19 22:00 -8.1 -11.9 83 Calm 30.19 1022.4 0.00
19 21:00 -7.3 -11.1 83 Calm 30.21 1023.0 0.00
19 20:00 -8.0 -11.8 83 Calm 30.25 1024.2 0.00
19 19:00 -7.6 -11.6 -1.4 -7.6 82 Calm 30.26 1024.8 0.00
19 18:00 -6.0 -9.8 83 Calm 30.27 1025.2 0.00
19 17:00 -5.6 -9.4 83 Calm 30.31 1026.3 0.00
19 16:00 -5.8 -10.1 81 Calm 30.32 1026.9 0.00
19 15:00 -5.4 -10.5 78 Calm 30.33 1027.1 0.00
19 14:00 -4.3 -11.0 72 WNW 0 G 5 30.31 1026.4 0.00
19 13:00 -1.4 -8.8 0.8 -4.7 70 WNW 2 G 5 30.31 1026.6 0.00
19 12:00 0.4 -6.8 71 NNW 0 G 2 30.36 1028.0 0.00
19 11:00 -0.1 -7.6 70 NNW 0 G 6 30.40 1029.4 0.00
19 10:00 -0.8 -7.1 74 N 0 G 2 30.40 1029.5 0.00
19 09:00 -2.2 -7.9 76 Calm 30.38 1029.0 0.00
19 08:00 -3.9 -8.8 79 NE 1 G 5 30.36 1028.3 0.00
19 07:00 -3.1 -8.5 11.7 -3.1 77 Calm 30.33 1027.2 0.00
19 06:00 -0.9 -6.9 75 NNE 1 G 9 30.31 1026.4 0.00
19 05:00 0.5 -6.1 73 N 0 G 7 30.29 1025.9 0.00
19 04:00 3.5 -2.4 76 N 0 G 7 30.27 1025.1 0.00
19 03:00 7.7 3.4 82 N 2 G 10 30.25 1024.5 0.00
19 02:00 10.3 6.9 86 N 1 G 8 30.23 1023.6 0.00
19 01:00 11.7 8.6 22.5 11.7 87 N 0 G 9 30.20 1022.8 0.00
19 00:00 16.2 13.3 88 N 0 G 5 30.18 1022.0 0.00
18 23:00 17.6 14.4 87 N 0 G 3 30.16 1021.2 0.00
18 22:00 18.1 14.4 85 Calm 30.14 1020.6 0.00
18 21:00 18.8 14.8 84 N 1 G 11 30.12 1019.9 0.00
18 20:00 19.5 15.7 85 N 0 G 6 30.09 1018.9 0.00
18 19:00 22.5 20.0 26.7 22.5 90 N 0 G 6 30.07 1018.4 0.00
18 18:00 24.0 22.0 92 Calm 30.01 1016.4 0.00
18 17:00 26.2 23.7 90 SW 3 G 11 29.98 1015.2 0.00
18 16:00 26.6 23.3 87 SSW 3 G 9 29.95 1014.3 0.00
18 15:00 26.7 23.1 86 SW 4 G 11 29.94 1014.0 0.00
18 14:00 26.5 22.6 85 SW 6 G 19 29.92 1013.2 0.00
18 13:00 26.4 23.1 26.4 18.5 87 SW 6 G 16 29.92 1013.2 0.00
18 12:00 25.2 22.1 88 SSW 6 G 18 29.95 1014.4 0.00
18 11:00 24.7 21.1 86 SSW 4 G 15 29.99 1015.6 0.00
18 10:00 23.1 19.5 86 S 7 G 14 30.01 1016.4 0.00
18 09:00 21.9 18.1 85 S 2 G 14 30.02 1016.8 0.00
18 08:00 20.5 17.0 86 SSW 6 G 14 30.03 1017.1 0.00
18 07:00 18.5 15.0 18.8 13.8 86 SSW 3 G 8 30.05 1017.6 0.00
18 06:00 18.3 11.7 75 SSW 3 G 13 30.05 1017.6 0.00
18 05:00 18.7 12.4 76 SSW 6 G 19 30.06 1017.8 0.00
18 04:00 18.4 8.9 66 SSW 5 G 14 30.08 1018.8 0.00
18 03:00 17.0 5.5 60 SW 2 G 9 30.11 1019.5 0.00
18 02:00 15.3 3.9 60 S 1 G 7 30.11 1019.8 0.00
18 01:00 14.6 2.9 16.3 4.9 59 SSW 2 G 6 30.14 1020.6 0.00
18 00:00 16.0 0.6 50 S 0 G 9 30.15 1020.9 0.00
17 23:00 12.5 2.6 64 S 1 G 10 30.20 1022.8 0.00
17 22:00 7.9 1.6 75 Calm 30.23 1023.8 0.00
17 21:00 5.9 1.1 80 Calm 30.25 1024.5 0.00
17 20:00 6.1 -0.4 74 Calm 30.28 1025.4 0.00
17 19:00 6.2 0.3 12.9 4.1 76 Calm 30.30 1026.2 0.00
17 18:00 4.9 -1.6 74 Calm 30.30 1026.2 0.00
17 17:00 7.3 -1.4 67 Calm 30.29 1025.8 0.00
17 16:00 10.2 -2.4 56 Calm 30.32 1026.7 0.00
17 15:00 11.9 -1.6 54 Calm 30.34 1027.5 0.00

Data generated by WxSolution Version 1.9.1.7, Build 2018.11.24.


 
 
Current Radar Loop:

Copyright © WestfordWeather.net 2007-2019. All rights reserved.